createdAt,value
2019-05-07T00:03:39.087Z,101284.02
2019-05-07T00:08:44.917Z,101283.66
2019-05-07T00:13:47.387Z,101286.28
2019-05-07T00:18:52.414Z,101285.18
2019-05-07T00:23:55.458Z,101280.34
2019-05-07T00:28:58.667Z,101282.67
2019-05-07T00:34:02.881Z,101281.58
2019-05-07T00:39:16.647Z,101279.16
2019-05-07T00:44:21.970Z,101277.91
2019-05-07T00:49:26.904Z,101281.56
2019-05-07T00:54:32.495Z,101287.19
2019-05-07T00:59:35.040Z,101279.14
2019-05-07T01:04:37.901Z,101284.59
2019-05-07T01:09:43.051Z,101286.05
2019-05-07T01:14:46.332Z,101279.53
2019-05-07T01:19:49.210Z,101279.52
2019-05-07T01:24:53.439Z,101283.33
2019-05-07T01:29:56.651Z,101278.89
2019-05-07T01:35:03.403Z,101283.50
2019-05-07T01:40:06.382Z,101279.97
2019-05-07T01:45:10.413Z,101279.69
2019-05-07T01:50:15.891Z,101284.75
2019-05-07T01:55:19.047Z,101279.17
2019-05-07T02:00:22.602Z,101285.02
2019-05-07T02:05:44.310Z,101290.09
2019-05-07T02:10:56.218Z,101301.63
2019-05-07T02:16:01.874Z,101310.16
2019-05-07T02:21:03.972Z,101315.69
2019-05-07T02:26:07.467Z,101313.88
2019-05-07T02:31:09.971Z,101310.61
2019-05-07T02:36:14.275Z,101313.09
2019-05-07T02:41:23.310Z,101305.58
2019-05-07T02:46:57.605Z,101303.86
2019-05-07T02:52:06.683Z,101307.39
2019-05-07T02:57:09.627Z,101309.41
2019-05-07T03:02:14.460Z,101306.09
2019-05-07T03:07:17.995Z,101301.86
2019-05-07T03:12:23.554Z,101301.35
2019-05-07T03:17:25.080Z,101302.55
2019-05-07T03:22:28.557Z,101306.37
2019-05-07T03:27:34.084Z,101318.63
2019-05-07T03:32:46.709Z,101311.97
2019-05-07T03:37:46.351Z,101314.84
2019-05-07T03:42:49.904Z,101314.73
2019-05-07T03:48:13.847Z,101317.14
2019-05-07T03:53:17.214Z,101311.75
2019-05-07T03:58:23.540Z,101315.96
2019-05-07T04:03:26.806Z,101314.58
2019-05-07T04:08:33.076Z,101321.94
2019-05-07T04:13:35.172Z,101324.86
2019-05-07T04:18:38.280Z,101322.48
2019-05-07T04:23:43.645Z,101320.09
2019-05-07T04:28:54.604Z,101325.20
2019-05-07T04:34:03.673Z,101322.41
2019-05-07T04:39:08.309Z,101322.11
2019-05-07T04:44:13.956Z,101314.49
2019-05-07T04:49:16.602Z,101320.38
2019-05-07T04:54:19.517Z,101319.72
2019-05-07T04:59:23.788Z,101306.28
2019-05-07T05:04:33.981Z,101309.48
2019-05-07T05:09:33.334Z,101320.92
2019-05-07T05:14:36.489Z,101319.00
2019-05-07T05:19:40.097Z,101330.00
2019-05-07T05:24:45.304Z,101351.08
2019-05-07T05:29:48.387Z,101357.03
2019-05-07T05:34:52.088Z,101338.94
2019-05-07T05:40:05.651Z,101341.30
2019-05-07T05:45:02.083Z,101364.69
2019-05-07T05:50:08.017Z,101374.45
2019-05-07T05:55:14.265Z,101345.46
2019-05-07T06:00:53.033Z,101341.08
2019-05-07T06:06:18.881Z,101347.43
2019-05-07T06:11:48.326Z,101351.59
2019-05-07T06:17:12.995Z,101352.73
2019-05-07T06:22:33.958Z,101351.09
2019-05-07T06:27:37.254Z,101347.20
2019-05-07T06:32:42.749Z,101344.98
2019-05-07T06:37:46.587Z,101337.36
2019-05-07T06:42:56.952Z,101343.01
2019-05-07T06:48:00.122Z,101343.78
2019-05-07T06:53:03.177Z,101348.81
2019-05-07T06:58:07.224Z,101339.94
2019-05-07T07:03:30.013Z,101347.70
2019-05-07T07:08:41.949Z,101347.37
2019-05-07T07:13:45.253Z,101350.77
2019-05-07T07:18:52.503Z,101342.58
2019-05-07T07:23:53.314Z,101341.71
2019-05-07T07:28:55.906Z,101340.40
2019-05-07T07:34:02.238Z,101333.69
2019-05-07T07:39:07.527Z,101332.01
2019-05-07T07:44:10.512Z,101319.84
2019-05-07T07:49:15.253Z,101313.51
2019-05-07T07:54:18.610Z,101307.63
2019-05-07T07:59:32.847Z,101311.03
2019-05-07T08:04:35.984Z,101307.42
2019-05-07T08:09:39.487Z,101301.69
2019-05-07T08:14:42.860Z,101304.73
2019-05-07T08:19:48.182Z,101310.71
2019-05-07T08:24:52.001Z,101312.58
2019-05-07T08:29:55.062Z,101322.27
2019-05-07T08:35:03.537Z,101318.77
2019-05-07T08:40:07.460Z,101308.19
2019-05-07T08:45:29.257Z,101301.75
2019-05-07T08:50:32.681Z,101314.44
2019-05-07T08:55:36.449Z,101304.16
2019-05-07T09:00:41.782Z,101314.00
2019-05-07T09:05:45.627Z,101314.71
2019-05-07T09:10:48.948Z,101311.23
2019-05-07T09:15:52.922Z,101284.98
2019-05-07T09:20:56.398Z,101294.37
2019-05-07T09:25:59.600Z,101293.12
2019-05-07T09:31:12.370Z,101297.00
2019-05-07T09:36:22.748Z,101295.31
2019-05-07T09:41:28.643Z,101299.28
2019-05-07T09:46:32.666Z,101314.47
2019-05-07T09:51:35.412Z,101319.12
2019-05-07T09:56:38.623Z,101327.71
2019-05-07T10:01:41.964Z,101331.70
2019-05-07T10:06:45.224Z,101330.48
2019-05-07T10:11:54.598Z,101329.92
2019-05-07T10:17:08.497Z,101324.42
2019-05-07T10:22:12.670Z,101311.20
2019-05-07T10:27:16.295Z,101318.40
2019-05-07T10:32:19.279Z,101326.59
2019-05-07T10:37:22.809Z,101347.81
2019-05-07T10:42:25.372Z,101342.30
2019-05-07T10:47:46.449Z,101329.80
2019-05-07T10:52:49.632Z,101327.19
2019-05-07T10:57:53.663Z,101308.48
2019-05-07T11:02:57.000Z,101311.98
2019-05-07T11:08:02.270Z,101316.45
2019-05-07T11:13:05.636Z,101314.20
2019-05-07T11:18:21.720Z,101310.95
2019-05-07T11:23:25.167Z,101313.30
2019-05-07T11:28:28.108Z,101298.73
2019-05-07T11:33:32.631Z,101298.05
2019-05-07T11:38:36.198Z,101274.28
2019-05-07T11:43:55.549Z,101274.50
2019-05-07T11:49:07.113Z,101284.70
2019-05-07T11:54:12.606Z,101278.17
2019-05-07T11:59:16.474Z,101294.83
2019-05-07T12:04:19.666Z,101281.41
2019-05-07T12:09:23.259Z,101282.75
2019-05-07T12:14:31.543Z,101273.81
2019-05-07T12:19:33.082Z,101266.71
2019-05-07T12:24:36.138Z,101253.44
2019-05-07T12:29:39.448Z,101257.27
2019-05-07T12:34:46.666Z,101256.32
2019-05-07T12:39:50.007Z,101247.51
2019-05-07T12:44:53.160Z,101246.56
2019-05-07T12:49:55.710Z,101253.73
2019-05-07T12:55:05.758Z,101262.80
2019-05-07T13:00:27.156Z,101270.06
2019-05-07T13:05:30.431Z,101270.96
2019-05-07T13:10:34.871Z,101283.52
2019-05-07T13:15:37.923Z,101283.60
2019-05-07T13:20:41.255Z,101273.09
2019-05-07T13:25:44.433Z,101259.94
2019-05-07T13:30:47.407Z,101241.17
2019-05-07T13:35:52.207Z,101238.34
2019-05-07T13:41:24.129Z,101244.75
2019-05-07T13:46:28.305Z,101241.92
2019-05-07T13:51:33.870Z,101232.47
2019-05-07T13:56:36.787Z,101232.34
2019-05-07T14:01:57.034Z,101229.45
2019-05-07T14:07:01.929Z,101219.27
2019-05-07T14:12:05.423Z,101211.84
2019-05-07T14:17:09.455Z,101213.94
2019-05-07T14:22:18.653Z,101206.48
2019-05-07T14:27:17.906Z,101211.27
2019-05-07T14:32:41.926Z,101217.97
2019-05-07T14:37:48.278Z,101217.73
2019-05-07T14:42:58.405Z,101212.39
2019-05-07T14:48:02.943Z,101210.00
2019-05-07T14:53:06.297Z,101202.02
2019-05-07T14:58:09.629Z,101205.20
2019-05-07T15:03:12.956Z,101205.69
2019-05-07T15:08:16.198Z,101212.35
2019-05-07T15:13:18.839Z,101199.27
2019-05-07T15:18:32.110Z,101190.58
2019-05-07T15:23:36.094Z,101192.63
2019-05-07T15:28:41.763Z,101190.30
2019-05-07T15:33:46.291Z,101187.94
2019-05-07T15:38:49.521Z,101189.98
2019-05-07T15:43:52.954Z,101179.17
2019-05-07T15:48:56.461Z,101184.60
2019-05-07T15:54:00.503Z,101179.20
2019-05-07T15:59:05.385Z,101182.05
2019-05-07T16:04:19.987Z,101179.63
2019-05-07T16:09:15.776Z,101171.78
2019-05-07T16:14:26.788Z,101179.81
2019-05-07T16:19:31.787Z,101183.22
2019-05-07T16:24:34.905Z,101171.27
2019-05-07T16:29:38.291Z,101172.70
2019-05-07T16:34:42.955Z,101176.36
2019-05-07T16:39:46.366Z,101173.41
2019-05-07T16:44:49.575Z,101150.20
2019-05-07T16:49:52.482Z,101158.05
2019-05-07T16:54:55.912Z,101157.34
2019-05-07T16:59:58.884Z,101160.20
2019-05-07T17:05:05.838Z,101153.52
2019-05-07T17:10:11.561Z,101150.53
2019-05-07T17:15:15.244Z,101153.60
2019-05-07T17:20:18.690Z,101152.04
2019-05-07T17:25:37.495Z,101152.16
2019-05-07T17:30:42.103Z,101151.44
2019-05-07T17:35:46.239Z,101152.02
2019-05-07T17:40:51.971Z,101153.09
2019-05-07T17:45:55.257Z,101151.91
2019-05-07T17:51:23.858Z,101153.37
2019-05-07T17:56:27.201Z,101155.00
2019-05-07T18:02:02.011Z,101148.67
2019-05-07T18:07:05.242Z,101147.07
2019-05-07T18:12:08.544Z,101147.64
2019-05-07T18:17:33.749Z,101147.98
2019-05-07T18:22:37.466Z,101143.14
2019-05-07T18:27:42.078Z,101145.20
2019-05-07T18:32:52.065Z,101136.70
2019-05-07T18:37:55.826Z,101137.97
2019-05-07T18:42:59.047Z,101143.20
2019-05-07T18:48:02.461Z,101138.39
2019-05-07T18:53:06.464Z,101134.66
2019-05-07T18:58:10.127Z,101136.23
2019-05-07T19:03:15.399Z,101134.47
2019-05-07T19:08:19.078Z,101137.28
2019-05-07T19:13:22.811Z,101134.50
2019-05-07T19:18:26.604Z,101135.73
2019-05-07T19:23:33.046Z,101139.38
2019-05-07T19:28:37.275Z,101139.16
2019-05-07T19:33:41.929Z,101142.44
2019-05-07T19:38:46.807Z,101134.50
2019-05-07T19:43:52.630Z,101134.95
2019-05-07T19:48:55.284Z,101132.28
2019-05-07T19:53:58.692Z,101124.63
2019-05-07T19:59:02.241Z,101125.18
2019-05-07T20:04:05.683Z,101123.00
2019-05-07T20:09:13.059Z,101116.72
2019-05-07T20:14:16.705Z,101108.78
2019-05-07T20:19:22.855Z,101098.56
2019-05-07T20:24:26.444Z,101102.33
2019-05-07T20:29:29.510Z,101098.23
2019-05-07T20:34:33.480Z,101101.75
2019-05-07T20:39:36.830Z,101097.83
2019-05-07T20:44:39.949Z,101098.88
2019-05-07T20:49:43.234Z,101096.45
2019-05-07T20:54:58.420Z,101089.36
2019-05-07T21:00:02.740Z,101081.72
2019-05-07T21:05:06.565Z,101078.23
2019-05-07T21:10:09.472Z,101083.50
2019-05-07T21:15:13.162Z,101082.59
2019-05-07T21:20:16.813Z,101079.27
2019-05-07T21:25:19.326Z,101070.77
2019-05-07T21:30:23.449Z,101067.70
2019-05-07T21:35:25.982Z,101056.69
2019-05-07T21:40:29.427Z,101059.59
2019-05-07T21:45:32.937Z,101059.45
2019-05-07T21:50:36.779Z,101053.39
2019-05-07T21:56:02.529Z,101042.23
2019-05-07T22:01:18.032Z,101039.45
2019-05-07T22:06:22.646Z,101028.95
2019-05-07T22:11:26.518Z,101027.92
2019-05-07T22:16:29.697Z,101018.72
2019-05-07T22:21:34.262Z,101016.52
2019-05-07T22:26:37.451Z,101005.12
2019-05-07T22:31:46.826Z,101002.13
2019-05-07T22:36:49.707Z,100998.42
2019-05-07T22:41:52.608Z,101002.47
2019-05-07T22:46:57.779Z,100995.90
2019-05-07T22:52:02.330Z,100986.34
2019-05-07T22:57:13.979Z,100970.20
2019-05-07T23:02:16.286Z,100957.53
2019-05-07T23:07:18.803Z,100953.37
2019-05-07T23:12:22.144Z,100945.30
2019-05-07T23:17:25.834Z,100952.43
2019-05-07T23:22:29.379Z,100944.09
2019-05-07T23:27:32.691Z,100946.96
2019-05-07T23:32:36.405Z,100949.23
2019-05-07T23:37:39.402Z,100956.04
2019-05-07T23:42:43.504Z,100954.39
2019-05-07T23:47:46.042Z,100954.01
2019-05-07T23:52:48.918Z,100957.88
2019-05-07T23:57:52.490Z,100957.38
